Aviation Digital Data Service (ADDS)

Output produced by METARs form (0636 UTC 15 December 2017)
found at http://www.aviationweather.gov/adds/metars/
 
KFIG 150623Z AUTO 00000KT 10SM FEW001 M13/M15 A3001 RMK AO2 T11331150
KFIG 150554Z AUTO 00000KT 10SM CLR M13/M14 A3001 RMK AO2 SLP189 I1000 I6000 T11281144 11100 21133 58003
KFIG 150454Z AUTO 00000KT 10SM CLR M12/M14 A3002 RMK AO2 SLP192 T11221144 410501128
KFIG 150354Z AUTO 00000KT 10SM FEW033 M12/M14 A3002 RMK AO2 SLP192 T11171144
KFIG 150254Z AUTO 00000KT 10SM OVC034 M11/M14 A3002 RMK AO2 SLP193 T11111139 51008
KFIG 150154Z AUTO 00000KT 10SM OVC036 M12/M15 A3001 RMK AO2 SLP192 T11171150
KFIG 150054Z AUTO 35003KT 10SM OVC037 M12/M14 A3001 RMK AO2 SLP190 T11171144
KFIG 142354Z AUTO 00000KT 10SM CLR M10/M14 A2999 RMK AO2 SLP183 60000 T11001139 11050 21106 51023
KFIG 142254Z AUTO 00000KT 10SM FEW037 M08/M14 A2996 RMK AO2 SLP171 T10781139
KFIG 142154Z AUTO 32005KT 10SM CLR M08/M14 A2995 RMK AO2 SLP167 T10781144
KFIG 142054Z AUTO 31007KT 10SM FEW036 M07/M14 A2992 RMK AO2 SLP156 60000 T10671144 53022
KFIG 141954Z AUTO 32014G19KT 10SM CLR M06/M14 A2989 RMK AO2 UPE05 SLP145 P0000 T10611144
KFIG 141854Z AUTO 31009KT 10SM UP SCT036 M05/M13 A2988 RMK AO2 UPE30B54 SLP141 P0000 T10501128
KFIG 141754Z AUTO 30016G23KT 4SM UP CLR M06/M13 A2985 RMK AO2 PK WND 32026/1741 SLP133 P0000 60000 T10561133 11050 21083 53007
KFIG 141750Z AUTO 30016G26KT 2SM UP CLR M06/M13 A2985 RMK AO2 PK WND 32026/1741 P0000
KFIG 141654Z AUTO 32012KT UP SCT032 M06/M12 A2983 RMK AO2 UPE06B35SNB06E31 SLP126 P0000 T10561122 $
KFIG 141633Z AUTO 28014G21KT 7SM SCT027 BKN033 M06/M12 A2984 RMK AO2 UPE06SNB06E31 P0000 T10561122 $
KFIG 141624Z AUTO 29014G25KT 2SM -SN BKN025 M06/M12 A2983 RMK AO2 UPE06SNB06 P0000 T10611122
KFIG 141554Z AUTO 32014G21KT 9SM UP BKN026 M06/M11 A2983 RMK AO2 UPB50 SLP126 P0000 T10611111
KFIG 141522Z AUTO 31009KT 10SM BKN025 M07/M11 A2983 RMK AO2 T10671111
KFIG 141454Z AUTO 30010KT 10SM FEW023 M07/M11 A2980 RMK AO2 SLP116 60000 T10671111 51063
KFIG 141354Z AUTO 30005KT 10SM CLR M08/M11 A2975 RMK AO2 UPB34E35 SLP099 P0000 T10781111
KFIG 141254Z AUTO 31008KT 10SM BKN060 M08/M11 A2969 RMK AO2 SNE01 PRESRR SLP079 P0000 T10781106
KFIG 141154Z AUTO 33011KT 7SM -SN OVC049 M07/M09 A2961 RMK AO2 SLP049 P0000 60011 70021 T10721094 11067 21078 53059
KFIG 141054Z AUTO 00000KT 5SM -SN BR BKN055 OVC080 M07/M08 A2953 RMK AO2 PRESRR SLP023 P0000 T10721083
KFIG 141037Z AUTO 00000KT 4SM -SN BR FEW025 OVC047 M07/M08 A2951 RMK AO2 P0000 T10721083
KFIG 141028Z AUTO 00000KT 2SM -SN BR SCT027 OVC032 M07/M08 A2950 RMK AO2 P0000 T10721078
KFIG 141020Z AUTO 00000KT 1 3/4SM -SN BR OVC025 M07/M08 A2949 RMK AO2 P0000 T10671078
KFIG 141005Z AUTO 36003KT 4SM -SN BR OVC027 M07/M09 A2948 RMK AO2 P0000 T10721089
KFIG 140954Z AUTO 00000KT 2SM -SN BR BKN019 BKN026 OVC031 M07/M08 A2947 RMK AO2 SLP001 P0002 T10721078
KFIG 140951Z AUTO 00000KT 2SM -SN BR BKN017 OVC028 M07/M08 A2947 RMK AO2 P0002
KFIG 140939Z AUTO 02004KT 1 1/4SM -SN BR BKN014 OVC025 M07/M08 A2946 RMK AO2 P0002 T10721083
KFIG 140929Z AUTO 05004KT 3/4SM -SN BR VV013 M07/M08 A2945 RMK AO2 P0001 T10721083
KFIG 140905Z AUTO 02005KT 1SM -SN BR VV015 M07/M08 A2944 RMK AO2 P0000 T10721083
KFIG 140854Z AUTO 01004KT 1 1/4SM -SN BR OVC013 M07/M08 A2943 RMK AO2 SLP987 P0003 60009 T10721083 53014
KFIG 140837Z AUTO 01006KT 1SM -SN BR VV011 M08/M09 A2941 RMK AO2 P0002 T10781089
KFIG 140825Z AUTO 02005KT 3/4SM -SN BR VV009 M08/M09 A2941 RMK AO2 P0002 T10781089
KFIG 140801Z AUTO 01005KT 3/4SM -SN BR VV010 M08/M09 A2940 RMK AO2 P0000 T10781089
KFIG 140754Z AUTO 02006KT 1SM -SN BR VV012 M08/M09 A2940 RMK AO2 SLP978 P0003 T10781089
KFIG 140737Z AUTO 02005KT 1SM -SN BR VV012 M08/M09 A2940 RMK AO2 P0002 T10781089
KFIG 140722Z AUTO 02005KT 3/4SM -SN BR VV011 M08/M09 A2939 RMK AO2 P0001 T10781089
KFIG 140654Z AUTO 02007KT 1SM -SN BR VV014 M08/M09 A2938 RMK AO2 SLP972 P0003 T10781089
KFIG 140642Z AUTO 02006KT 1SM -SN BR VV011 M08/M09 A2939 RMK AO2 P0002 T10781089
KFIG 140612Z AUTO 03006KT 3/4SM -SN BR VV013 M08/M09 A2940 RMK AO2 P0001 T10781089
KFIG 140554Z AUTO 03006KT 1 1/4SM -SN BR OVC018 M08/M09 A2940 RMK AO2 SLP979 P0002 60010 T10781089 11072 21078 58028
KFIG 140535Z AUTO 04004KT 1SM -SN BR BKN015 OVC020 M08/M09 A2942 RMK AO2 P0001 T10781089
KFIG 140454Z AUTO 05005KT 1SM -SN BR VV013 M08/M09 A2944 RMK AO2 SLP992 P0002 T10781089 410671117
KFIG 140428Z AUTO 05005KT 1SM -SN BR VV013 M08/M09 A2945 RMK AO2 P0001 T10781089
KFIG 140415Z AUTO 05006KT 3/4SM -SN BR BKN011 OVC021 M08/M09 A2945 RMK AO2 P0001 T10781089
KFIG 140408Z AUTO 06006KT 1SM -SN BR BKN015 OVC025 M08/M09 A2945 RMK AO2 P0000 T10781089
KFIG 140401Z AUTO 05006KT 2SM -SN BR BKN020 OVC027 M08/M09 A2945 RMK AO2 P0000 T10781089
KFIG 140350Z AUTO 06005KT 1 3/4SM -SN BR BKN022 OVC029 M08/M09 A2946 RMK AO2 SLP000 P0001 T10781089
KFIG 140349Z AUTO 05005KT 1 3/4SM -SN BR BKN022 OVC031 M08/M09 A2946 RMK AO2 P0001
KFIG 140343Z AUTO 06004KT 3SM -SN BR BKN022 OVC027 M08/M09 A2946 RMK AO2 P0001 T10781089
KFIG 140330Z AUTO 05004KT 2SM -SN BR SCT019 OVC027 M08/M09 A2947 RMK AO2 P0001 T10781089
KFIG 140312Z AUTO 06005KT 1 1/4SM -SN BR BKN015 OVC027 M08/M09 A2948 RMK AO2 P0000 T10781089
KFIG 140254Z AUTO 05005KT 1 1/4SM -SN BR OVC014 M08/M09 A2949 RMK AO2 SLP009 P0004 60005 T10781089 58022
KFIG 140231Z AUTO 06005KT 1SM -SN BR VV010 M08/M09 A2950 RMK AO2 P0003 T10781089
KFIG 140211Z AUTO 09003KT 3/4SM -SN BR VV008 M08/M09 A2952 RMK AO2 P0001 T10781089
KFIG 140154Z AUTO 00000KT 3/4SM -SN BR VV013 M08/M09 A2953 RMK AO2 SNB24 SLP025 P0001 T10781094
KFIG 140152Z AUTO 00000KT 3/4SM -SN BR VV014 M07/M09 A2954 RMK AO2 SNB24 P0001
KFIG 140146Z AUTO 00000KT 1 1/4SM -SN BR BKN017 OVC031 M07/M09 A2954 RMK AO2 SNB24 P0000 T10721094
KFIG 140134Z AUTO 00000KT 2 1/2SM -SN BR BKN025 OVC031 M07/M09 A2954 RMK AO2 SNB24 P0000 T10721094
KFIG 140054Z AUTO 09004KT 10SM OVC035 M08/M09 A2953 RMK AO2 SNE14 SLP025 P0000 T10781094
KFIG 132354Z AUTO 10004KT 5SM -SN BR OVC034 M08/M09 A2955 RMK AO2 SLP033 P0000 60000 T10781094 11067 21078 58022
KFIG 132345Z AUTO 00000KT 3SM -SN BR OVC026 M08/M09 A2956 RMK AO2 P0000 T10781094
KFIG 132337Z AUTO 00000KT 1 3/4SM -SN BR OVC022 M08/M09 A2957 RMK AO2 P0000 T10781094
KFIG 132321Z AUTO 18003KT 2 1/2SM -SN BR OVC028 M08/M09 A2957 RMK AO2 P0000 T10781094
KFIG 132254Z AUTO 00000KT 6SM -SN OVC037 M08/M11 A2958 RMK AO2 SLP042 P0000 T10781106
KFIG 132238Z AUTO 19005KT 3SM -SN OVC028 M08/M11 A2958 RMK AO2 P0000 T10781106
KFIG 132235Z AUTO 19006KT 2 1/2SM -SN OVC030 M08/M11 A2959 RMK AO2 P0000 T10781111
KFIG 132154Z AUTO 25004KT 6SM -SN BKN046 OVC070 M07/M13 A2960 RMK AO2 SNB50 SLP049 P0000 T10721128
KFIG 132054Z AUTO 25005KT 10SM FEW034 M07/M14 A2962 RMK AO2 SLP056 60000 T10671139 56018
KFIG 131954Z AUTO 27005KT 10SM FEW026 BKN033 M07/M13 A2964 RMK AO2 SNB1855E20 SLP061 P0000 T10671133
KFIG 131854Z AUTO 27011G18KT 10SM OVC033 M07/M13 A2965 RMK AO2 UPB19E28 SLP067 P0000 T10721133